»·PEaware :: N723BA KSNA-KSBA

N723BA :: KSNA-KSBA

FLIGHT INFORMATION

Flight Status: Arrived
Operator: Privately registered:
United States
More flights under this callsign
Pilot: Brian A. (9771)
Aircraft: CESSNA 182 SKYLANE
(C182)
More flights by this aircraft type
Origin: KSNA John Wayne-Orange Co
United States
Destination: KSBA Santa Barbara Mun
United States
More flights between these airports :: More routes between these airports
Route: SLI V23 LAX V299 VTU VTU282R KWANG
File this flight plan on PilotEdge
Remarks: tec route cstp21
Altitude:
(Current/Filed)
6,000ft
Speed:
(Current/Filed)
150kts
Departed: 27-Jan-19 11:06 AM
Arrived: 27-Jan-19 12:01 PM
Distance/Time
Traveled:
108nm/0:55
Distance/Time
To Go:
Arrived

Flight Plot

Page will automatically refresh every two minutes.


Map Options




Map Legend


Flown Route
Filed Route
Departure Airport
Arrival Airport
Navaid (VOR, NDB)
Fix

Horizontal Profiles

Position Reports

Time Latitude Longitude Heading Altitude Ground
Speed
27-Jan-19 10:37 33.672211 -117.866762 215 59ft 0kts
27-Jan-19 10:38 33.672211 -117.866762 215 59ft 0kts
27-Jan-19 10:39 33.672211 -117.866762 215 59ft 0kts
27-Jan-19 10:40 33.672211 -117.866762 215 59ft 0kts
27-Jan-19 10:41 33.672211 -117.866762 215 59ft 0kts
27-Jan-19 10:42 33.672211 -117.866762 215 59ft 0kts
27-Jan-19 10:43 33.672211 -117.866762 215 59ft 0kts
27-Jan-19 10:44 33.672211 -117.866762 215 59ft 0kts
27-Jan-19 10:45 33.672211 -117.866762 215 59ft 0kts
27-Jan-19 10:46 33.672211 -117.866762 215 59ft 0kts
27-Jan-19 10:47 33.672211 -117.866762 215 59ft 0kts
27-Jan-19 10:48 33.672211 -117.866762 215 59ft 0kts
27-Jan-19 10:49 33.672211 -117.866762 215 59ft 0kts
27-Jan-19 10:50 33.672211 -117.866762 215 59ft 0kts
27-Jan-19 10:51 33.672211 -117.866762 215 59ft 0kts
27-Jan-19 10:52 33.672210 -117.866763 215 59ft 0kts
27-Jan-19 10:53 33.672207 -117.866766 215 59ft 0kts
27-Jan-19 10:54 33.672205 -117.866767 215 59ft 0kts
27-Jan-19 10:55 33.672203 -117.866769 215 59ft 0kts
27-Jan-19 10:56 33.672197 -117.866774 215 59ft 0kts
27-Jan-19 10:57 33.672128 -117.867193 299 59ft 4kts
27-Jan-19 10:58 33.672132 -117.867202 299 59ft 0kts
27-Jan-19 10:59 33.672133 -117.867203 299 59ft 0kts
27-Jan-19 11:00 33.672134 -117.867205 299 59ft 0kts
27-Jan-19 11:01 33.672135 -117.867208 299 59ft 0kts
27-Jan-19 11:02 33.673714 -117.867261 347 59ft 9kts
27-Jan-19 11:03 33.677227 -117.865126 25 59ft 17kts
27-Jan-19 11:04 33.679965 -117.863621 319 59ft 0kts
27-Jan-19 11:05 33.667965 -117.872833 217 400ft 94kts
27-Jan-19 11:06 33.648249 -117.894107 217 1562ft 95kts
27-Jan-19 11:07 33.626189 -117.915597 218 1996ft 117kts
27-Jan-19 11:08 33.601280 -117.944685 228 2079ft 133kts
27-Jan-19 11:09 33.578472 -117.981810 234 2457ft 134kts
27-Jan-19 11:10 33.554413 -118.015809 228 3101ft 131kts
27-Jan-19 11:11 33.530057 -118.048901 241 3662ft 134kts
27-Jan-19 11:12 33.536336 -118.087940 325 4089ft 137kts
27-Jan-19 11:13 33.567339 -118.111813 329 4703ft 129kts
27-Jan-19 11:14 33.597937 -118.133247 326 5401ft 120kts
27-Jan-19 11:15 33.624700 -118.155500 324 6085ft 127kts
27-Jan-19 11:16 33.656768 -118.183739 323 6005ft 144kts
27-Jan-19 11:17 33.688779 -118.212402 323 6008ft 145kts
27-Jan-19 11:18 33.721474 -118.241705 323 6007ft 147kts
27-Jan-19 11:19 33.754549 -118.271366 323 6004ft 148kts
27-Jan-19 11:20 33.787498 -118.300952 323 6002ft 147kts
27-Jan-19 11:21 33.821004 -118.331061 323 6006ft 157kts
27-Jan-19 11:22 33.855899 -118.362419 323 6052ft 160kts
27-Jan-19 11:23 33.892008 -118.394946 323 5858ft 164kts
27-Jan-19 11:24 33.922925 -118.431966 304 5819ft 153kts
27-Jan-19 11:25 33.943921 -118.474250 300 6004ft 142kts
27-Jan-19 11:26 33.959248 -118.518989 293 6021ft 147kts
27-Jan-19 11:27 33.973273 -118.565937 290 5940ft 150kts
27-Jan-19 11:28 33.987255 -118.612746 290 5921ft 147kts
27-Jan-19 11:29 34.001113 -118.659095 290 5914ft 147kts
27-Jan-19 11:30 34.015196 -118.705787 290 5911ft 148kts
27-Jan-19 11:32 34.030763 -118.750644 299 6049ft 144kts
27-Jan-19 11:33 34.042909 -118.797549 289 6048ft 148kts
27-Jan-19 11:34 34.053509 -118.845348 284 6042ft 148kts
27-Jan-19 11:35 34.067120 -118.892301 290 6040ft 148kts
27-Jan-19 11:36 34.081382 -118.939027 290 6045ft 148kts
27-Jan-19 11:37 34.095613 -118.985678 290 6044ft 148kts
27-Jan-19 11:38 34.109833 -119.032454 289 6044ft 148kts
27-Jan-19 11:39 34.123151 -119.079325 298 6043ft 148kts
27-Jan-19 11:40 34.144558 -119.121699 299 6042ft 148kts
27-Jan-19 11:41 34.163812 -119.165952 296 5998ft 149kts
27-Jan-19 11:42 34.182568 -119.210463 296 5993ft 148kts
27-Jan-19 11:43 34.201279 -119.255074 297 5993ft 148kts
27-Jan-19 11:44 34.219904 -119.299560 297 5990ft 141kts
27-Jan-19 11:45 34.236507 -119.339212 297 5303ft 130kts
27-Jan-19 11:46 34.252705 -119.377906 296 4597ft 128kts
27-Jan-19 11:47 34.268886 -119.416574 297 4231ft 133kts
27-Jan-19 11:48 34.286228 -119.458012 296 3999ft 138kts
27-Jan-19 11:49 34.303857 -119.500171 296 4008ft 141kts
27-Jan-19 11:50 34.321601 -119.542605 297 3853ft 138kts
27-Jan-19 11:50 34.335779 -119.576522 296 3252ft 131kts
27-Jan-19 11:52 34.352425 -119.616399 297 3193ft 104kts
27-Jan-19 11:53 34.366106 -119.647852 301 3018ft 107kts
27-Jan-19 11:54 34.381390 -119.679054 300 2835ft 108kts
27-Jan-19 11:54 34.395865 -119.708579 300 2699ft 141kts
27-Jan-19 11:55 34.419447 -119.746761 314 2779ft 142kts
27-Jan-19 11:57 34.446809 -119.781257 310 2117ft 113kts
27-Jan-19 11:58 34.454967 -119.817143 264 1484ft 107kts
27-Jan-19 11:58 34.450833 -119.840557 231 1274ft 77kts
27-Jan-19 11:59 34.432138 -119.842044 163 146ft 69kts
27-Jan-19 12:00 34.422716 -119.838412 120 13ft 15kts
27-Jan-19 12:01 34.423492 -119.837365 335 13ft 3kts
27-Jan-19 12:02 34.426620 -119.838318 345 13ft 17kts
27-Jan-19 12:03 34.429250 -119.839139 345 13ft 13kts
27-Jan-19 12:04 34.431012 -119.838937 9 13ft 6kts
27-Jan-19 12:05 34.431724 -119.837535 147 13ft 0kts
27-Jan-19 12:06 34.431723 -119.837534 147 13ft 0kts

Navigation Log

Ident Type
Flight plan parsing failed, navigation log unavailable